Time;durP1;ratioP1;P1;durP2;ratioP2;P2;SDS_P1;SDS_P2;PMS_P1;PMS_P2;Temp;Humidity;BMP_temperature;BMP_pressure;BME280_temperature;BME280_humidity;BME280_pressure;Samples;Min_cycle;Max_cycle;Signal;HPM_P1;HPM_P2
2023/12/08 00:02:06;;;;;;;3.00;2.70;;;;;;;;;;4973091;28;20233;-85
2023/12/08 00:04:31;;;;;;;5.73;2.50;;;2.20;99.90;;;;;;4992005;28;21088;-84
2023/12/08 00:06:57;;;;;;;9.93;1.93;;;2.20;99.90;;;;;;4978668;28;20432;-84
2023/12/08 00:09:22;;;;;;;1.80;1.70;;;2.20;99.90;;;;;;4992791;28;20721;-85
2023/12/08 00:11:48;;;;;;;1.90;1.47;;;2.20;99.90;;;;;;4998058;28;20210;-84
2023/12/08 00:14:14;;;;;;;1.97;1.87;;;2.20;99.90;;;;;;5003936;28;20227;-85
2023/12/08 00:16:39;;;;;;;2.60;2.00;;;2.30;99.90;;;;;;4991079;28;20191;-85
2023/12/08 00:19:05;;;;;;;2.70;2.00;;;2.20;99.90;;;;;;4976024;28;20442;-85
2023/12/08 00:21:30;;;;;;;5.20;1.60;;;2.20;99.90;;;;;;4990501;28;20199;-85
2023/12/08 00:23:56;;;;;;;1.80;1.67;;;2.20;99.90;;;;;;4972778;28;22329;-85
2023/12/08 00:26:21;;;;;;;6.73;1.63;;;2.30;99.90;;;;;;4992387;28;20171;-84
2023/12/08 00:28:47;;;;;;;0.70;0.70;;;2.20;99.90;;;;;;4974832;28;20566;-84
2023/12/08 00:31:12;;;;;;;1.03;0.80;;;2.30;99.90;;;;;;5004399;28;20292;-84
2023/12/08 00:33:38;;;;;;;3.93;2.37;;;2.20;99.90;;;;;;4995396;28;20184;-84
2023/12/08 00:36:14;;;;;;;9.00;2.20;;;2.20;99.90;;;;;;4990438;28;20204;-85
2023/12/08 00:38:40;;;;;;;4.20;2.88;;;2.20;99.90;;;;;;4990538;28;20179;-83
2023/12/08 00:41:08;;;;;;;5.65;4.28;;;2.20;99.90;;;;;;4976395;28;20199;-85
2023/12/08 00:43:33;;;;;;;7.00;2.35;;;2.20;99.90;;;;;;4973846;28;20264;-86
2023/12/08 00:45:59;;;;;;;2.90;2.03;;;2.30;99.90;;;;;;5003518;28;20215;-85
2023/12/08 00:48:24;;;;;;;4.87;3.00;;;2.30;99.90;;;;;;4994399;28;20191;-84
2023/12/08 00:50:50;;;;;;;3.07;1.27;;;2.20;99.90;;;;;;5010952;28;20207;-84
2023/12/08 00:53:15;;;;;;;10.60;3.43;;;2.30;99.90;;;;;;4980522;28;20262;-84
2023/12/08 00:55:41;;;;;;;3.83;2.13;;;2.30;99.90;;;;;;4982715;28;20183;-85
2023/12/08 00:58:06;;;;;;;6.20;2.80;;;2.20;99.90;;;;;;4991319;28;20179;-85
2023/12/08 01:00:32;;;;;;;7.30;3.60;;;2.20;99.90;;;;;;4980114;28;20791;-84
2023/12/08 01:02:57;;;;;;;2.40;2.00;;;2.20;99.90;;;;;;4994194;28;20248;-84
2023/12/08 01:05:23;;;;;;;6.27;3.13;;;;;;;;;;4988515;28;20688;-84
2023/12/08 01:07:49;;;;;;;5.95;2.50;;;2.40;99.90;;;;;;4986765;28;20183;-85
2023/12/08 01:10:14;;;;;;;2.67;1.27;;;2.20;99.90;;;;;;4989518;28;20211;-84
2023/12/08 01:12:40;;;;;;;7.80;3.10;;;2.40;99.90;;;;;;4986735;28;20184;-84
2023/12/08 01:15:06;;;;;;;1.30;1.23;;;2.50;99.90;;;;;;4977606;28;20183;-86
2023/12/08 01:17:31;;;;;;;7.28;2.65;;;2.50;99.90;;;;;;5006830;28;20183;-84
2023/12/08 01:19:57;;;;;;;3.97;1.90;;;2.40;99.90;;;;;;4998661;28;20483;-85
2023/12/08 01:22:27;;;;;;;5.53;2.40;;;2.40;99.90;;;;;;4970760;28;20175;-85
2023/12/08 01:24:53;;;;;;;7.95;3.22;;;2.40;99.90;;;;;;4987060;28;20426;-85
2023/12/08 01:27:19;;;;;;;7.82;3.55;;;2.40;99.90;;;;;;4995457;28;20160;-85
2023/12/08 01:29:44;;;;;;;4.13;2.50;;;2.30;99.90;;;;;;4973238;28;20261;-85
2023/12/08 01:32:10;;;;;;;3.03;2.73;;;2.30;99.90;;;;;;4996644;28;20187;-85
2023/12/08 01:34:35;;;;;;;4.13;1.87;;;2.30;99.90;;;;;;4972332;28;20179;-84
2023/12/08 01:37:01;;;;;;;8.17;2.97;;;2.20;99.90;;;;;;4984143;28;20176;-85
2023/12/08 01:39:26;;;;;;;7.97;3.27;;;2.30;99.90;;;;;;4981276;28;20214;-84
2023/12/08 01:41:52;;;;;;;6.10;2.90;;;2.40;99.90;;;;;;4979657;28;20271;-85
2023/12/08 01:44:17;;;;;;;3.83;2.80;;;2.50;99.90;;;;;;4966180;28;20233;-84
2023/12/08 01:46:44;;;;;;;8.93;3.60;;;2.50;99.90;;;;;;4993409;28;20183;-84
2023/12/08 01:49:09;;;;;;;7.30;3.30;;;2.60;99.90;;;;;;4985779;28;20679;-85
2023/12/08 01:51:35;;;;;;;8.00;2.80;;;;;;;;;;4990924;28;20176;-85
2023/12/08 01:54:01;;;;;;;5.40;2.57;;;2.60;99.90;;;;;;4984403;28;20229;-86
2023/12/08 01:56:27;;;;;;;4.50;2.50;;;2.50;99.90;;;;;;5020572;28;20429;-86
2023/12/08 01:58:53;;;;;;;6.50;3.27;;;2.50;99.90;;;;;;4994592;28;20462;-85
2023/12/08 02:01:19;;;;;;;8.05;3.88;;;2.50;99.90;;;;;;4989138;28;20212;-85
2023/12/08 02:03:48;;;;;;;3.87;2.93;;;2.50;99.90;;;;;;4988707;28;20167;-86
2023/12/08 02:06:14;;;;;;;5.68;2.38;;;2.50;99.90;;;;;;4984709;28;20502;-86
2023/12/08 02:08:40;;;;;;;11.63;3.95;;;2.50;99.90;;;;;;4996929;28;20217;-86
2023/12/08 02:11:06;;;;;;;7.72;4.00;;;2.40;99.90;;;;;;5009181;28;20207;-86
2023/12/08 02:13:32;;;;;;;9.00;4.60;;;2.30;99.90;;;;;;4969838;28;20197;-86
2023/12/08 02:16:06;;;;;;;6.30;2.17;;;2.40;99.90;;;;;;4996883;28;20190;-86
2023/12/08 02:18:32;;;;;;;5.45;3.42;;;2.50;99.90;;;;;;4979209;28;20182;-85
2023/12/08 02:20:59;;;;;;;8.23;6.07;;;2.50;99.90;;;;;;4990412;28;20207;-86
2023/12/08 02:23:25;;;;;;;8.60;3.25;;;2.50;99.90;;;;;;4973962;28;20172;-85
2023/12/08 02:25:51;;;;;;;6.60;3.63;;;;;;;;;;4997510;28;20248;-85
2023/12/08 02:28:16;;;;;;;2.37;2.17;;;2.50;99.90;;;;;;5006759;28;20308;-86
2023/12/08 02:30:42;;;;;;;3.70;3.30;;;2.40;99.90;;;;;;4999135;28;21034;-85
2023/12/08 02:33:27;;;;;;;5.87;3.37;;;2.40;99.90;;;;;;4975784;28;21901;-84
2023/12/08 02:35:54;;;;;;;5.85;2.72;;;2.40;99.90;;;;;;4986569;28;20199;-85
2023/12/08 02:38:21;;;;;;;7.18;3.25;;;2.40;99.90;;;;;;4971792;28;20179;-85
2023/12/08 02:40:47;;;;;;;5.40;3.08;;;2.40;99.90;;;;;;4987748;28;20203;-84
2023/12/08 02:43:12;;;;;;;1.90;1.43;;;2.40;99.90;;;;;;4978355;28;20357;-85
2023/12/08 02:45:38;;;;;;;2.70;2.33;;;2.40;99.90;;;;;;4977334;28;20194;-84
2023/12/08 02:48:03;;;;;;;3.80;2.20;;;2.30;99.90;;;;;;4978675;28;20269;-84
2023/12/08 02:50:29;;;;;;;3.50;1.87;;;2.20;99.90;;;;;;4991002;28;20199;-84
2023/12/08 02:52:54;;;;;;;4.73;2.50;;;2.20;99.90;;;;;;4991171;28;20195;-86
2023/12/08 02:55:20;;;;;;;3.70;2.80;;;;;;;;;;4994357;28;20685;-85
2023/12/08 02:57:46;;;;;;;5.50;1.63;;;;;;;;;;4975169;28;20618;-85
2023/12/08 03:00:12;;;;;;;5.10;3.40;;;2.30;99.90;;;;;;4998529;28;20497;-85
2023/12/08 03:02:38;;;;;;;3.20;2.40;;;2.30;99.90;;;;;;4995577;28;20505;-85
2023/12/08 03:05:04;;;;;;;13.93;2.60;;;2.40;99.90;;;;;;4976170;28;20464;-84
2023/12/08 03:07:29;;;;;;;8.70;2.63;;;2.40;99.90;;;;;;4988598;28;20266;-85
2023/12/08 03:09:55;;;;;;;8.30;3.00;;;2.40;99.90;;;;;;4973064;28;20458;-86
2023/12/08 03:12:21;;;;;;;7.17;2.30;;;;;;;;;;4972998;28;20187;-86
2023/12/08 03:14:46;;;;;;;9.57;2.80;;;2.50;99.90;;;;;;4981518;28;20273;-85
2023/12/08 03:17:13;;;;;;;9.63;4.53;;;2.50;99.90;;;;;;4978164;28;21188;-85
2023/12/08 03:19:40;;;;;;;14.70;3.13;;;2.50;99.90;;;;;;4981792;28;20803;-85
2023/12/08 03:22:05;;;;;;;4.75;3.55;;;2.50;99.90;;;;;;4989453;28;20210;-85
2023/12/08 03:24:31;;;;;;;4.43;3.73;;;2.60;99.90;;;;;;4986957;28;20175;-85
2023/12/08 03:26:56;;;;;;;11.63;3.40;;;;;;;;;;4990183;28;20172;-84
2023/12/08 03:29:22;;;;;;;3.17;1.80;;;2.60;99.90;;;;;;4988348;28;20198;-85
2023/12/08 03:31:48;;;;;;;5.50;2.53;;;;;;;;;;4995019;28;20446;-85
2023/12/08 03:34:13;;;;;;;2.63;1.73;;;2.60;99.90;;;;;;4995493;28;20180;-85
2023/12/08 03:36:39;;;;;;;7.10;3.47;;;2.60;99.90;;;;;;4972407;28;20429;-85
2023/12/08 03:39:05;;;;;;;4.83;3.50;;;;;;;;;;4977632;28;20701;-85
2023/12/08 03:41:30;;;;;;;7.63;4.43;;;2.60;99.90;;;;;;4991587;28;20203;-86
2023/12/08 03:43:56;;;;;;;5.73;3.03;;;2.60;99.90;;;;;;4990953;28;20481;-85
2023/12/08 03:46:21;;;;;;;6.23;2.53;;;2.70;99.90;;;;;;4990293;28;20191;-86
2023/12/08 03:48:49;;;;;;;4.03;1.80;;;2.60;99.90;;;;;;4974933;28;20179;-86
2023/12/08 03:51:14;;;;;;;3.42;2.05;;;2.50;99.90;;;;;;4975001;28;20712;-86
2023/12/08 03:53:40;;;;;;;4.40;2.90;;;2.50;99.90;;;;;;4974933;28;20191;-86
2023/12/08 03:56:06;;;;;;;4.40;2.83;;;2.50;99.90;;;;;;4983586;28;20187;-86
2023/12/08 03:58:32;;;;;;;10.93;2.33;;;2.60;99.90;;;;;;4985255;28;20195;-86
2023/12/08 04:00:57;;;;;;;2.50;2.30;;;2.60;99.90;;;;;;4985921;28;20218;-86
2023/12/08 04:03:23;;;;;;;2.17;1.97;;;2.80;99.90;;;;;;4976422;28;20190;-85
2023/12/08 04:05:49;;;;;;;5.60;3.80;;;;;;;;;;4974082;28;20171;-87
2023/12/08 04:08:14;;;;;;;3.45;2.65;;;2.70;99.90;;;;;;4986078;28;20183;-86
2023/12/08 04:10:40;;;;;;;2.33;1.70;;;;;;;;;;4971662;28;20218;-85
2023/12/08 04:13:06;;;;;;;7.25;4.07;;;2.70;99.90;;;;;;4966082;28;20191;-86
2023/12/08 04:15:31;;;;;;;7.23;2.33;;;2.40;99.90;;;;;;4966945;28;20714;-85
2023/12/08 04:17:57;;;;;;;4.83;2.70;;;2.60;99.90;;;;;;4971192;28;20183;-85
2023/12/08 04:20:23;;;;;;;4.80;3.17;;;2.60;99.90;;;;;;4984864;28;20290;-85
2023/12/08 04:22:48;;;;;;;3.67;2.03;;;2.70;99.90;;;;;;4976362;28;20175;-85
2023/12/08 04:25:14;;;;;;;14.77;2.10;;;2.80;99.90;;;;;;4977990;28;20439;-85
2023/12/08 04:27:40;;;;;;;6.03;2.37;;;3.00;99.90;;;;;;4988196;28;20183;-85
2023/12/08 04:30:06;;;;;;;3.40;2.10;;;3.00;99.90;;;;;;4987714;28;20207;-85
2023/12/08 04:32:32;;;;;;;4.25;3.35;;;3.00;99.90;;;;;;4986566;28;20179;-86
2023/12/08 04:34:58;;;;;;;3.17;2.33;;;3.10;99.90;;;;;;4980619;28;20182;-85
2023/12/08 04:37:23;;;;;;;5.23;3.67;;;3.10;99.90;;;;;;4992940;28;20233;-85
2023/12/08 04:39:49;;;;;;;4.83;3.67;;;3.10;99.90;;;;;;4987166;28;20242;-85
2023/12/08 04:42:15;;;;;;;4.17;2.90;;;3.10;99.90;;;;;;4990805;28;20200;-86
2023/12/08 04:44:41;;;;;;;3.80;2.08;;;3.10;99.90;;;;;;4986819;28;20179;-86
2023/12/08 04:47:06;;;;;;;2.20;1.70;;;3.10;99.90;;;;;;4974193;28;20182;-86
2023/12/08 04:49:32;;;;;;;2.83;2.03;;;3.10;99.90;;;;;;4981343;28;20898;-86
2023/12/08 04:51:57;;;;;;;12.47;7.93;;;3.00;99.90;;;;;;4971193;28;20183;-85
2023/12/08 04:54:23;;;;;;;10.63;4.93;;;3.00;99.90;;;;;;4967008;28;20224;-86
2023/12/08 04:56:49;;;;;;;7.10;2.80;;;3.10;99.90;;;;;;5000466;28;20190;-86
2023/12/08 04:59:14;;;;;;;5.03;2.37;;;3.20;99.90;;;;;;4985525;28;20189;-85
2023/12/08 05:01:40;;;;;;;17.27;4.87;;;3.20;99.90;;;;;;4989179;28;20275;-85
2023/12/08 05:04:05;;;;;;;4.73;4.10;;;3.20;99.90;;;;;;4978642;28;20247;-85
2023/12/08 05:06:31;;;;;;;7.47;2.47;;;3.30;99.90;;;;;;4966302;28;20189;-84
2023/12/08 05:08:57;;;;;;;4.53;2.63;;;3.20;99.90;;;;;;4977094;28;20172;-84
2023/12/08 05:11:22;;;;;;;10.10;2.90;;;3.20;99.90;;;;;;4987991;28;20458;-84
2023/12/08 05:13:48;;;;;;;4.47;2.10;;;3.10;99.90;;;;;;4982568;28;20199;-87
2023/12/08 05:16:15;;;;;;;3.25;2.92;;;3.00;99.90;;;;;;4966186;28;20201;-84
2023/12/08 05:18:41;;;;;;;4.00;2.47;;;2.90;99.90;;;;;;4967746;28;21185;-84
2023/12/08 05:21:07;;;;;;;3.85;3.17;;;3.80;99.90;;;;;;4983047;28;20282;-86
2023/12/08 05:23:33;;;;;;;4.00;1.67;;;2.70;99.90;;;;;;4990980;28;20214;-87
2023/12/08 05:25:58;;;;;;;4.80;2.90;;;2.60;99.90;;;;;;4984806;28;20446;-89
2023/12/08 05:28:25;;;;;;;4.00;3.07;;;;;;;;;;4996290;28;20198;-90
2023/12/08 05:30:52;;;;;;;11.05;2.20;;;2.60;99.90;;;;;;4997894;28;20203;-89
2023/12/08 05:33:18;;;;;;;3.55;1.83;;;2.50;99.90;;;;;;4979335;28;20173;-88
2023/12/08 05:35:44;;;;;;;6.38;2.47;;;2.40;99.90;;;;;;4985300;28;20248;-87
2023/12/08 05:38:10;;;;;;;2.93;1.70;;;;;;;;;;4986833;28;20179;-87
2023/12/08 05:40:36;;;;;;;7.97;2.40;;;2.10;99.90;;;;;;4988374;28;20196;-87
2023/12/08 05:43:02;;;;;;;3.53;1.40;;;2.00;99.90;;;;;;4968603;28;20432;-88
2023/12/08 05:45:28;;;;;;;2.83;2.10;;;;;;;;;;4976868;28;20583;-89
2023/12/08 05:47:53;;;;;;;3.73;2.10;;;1.90;99.90;;;;;;4977022;28;20207;-88
2023/12/08 05:50:19;;;;;;;1.73;1.10;;;;;;;;;;4980250;28;20561;-88
2023/12/08 05:52:45;;;;;;;3.03;2.37;;;1.90;99.90;;;;;;4981623;28;20170;-87
2023/12/08 05:55:10;;;;;;;4.53;1.90;;;1.90;99.90;;;;;;4980718;28;20837;-87
2023/12/08 05:57:36;;;;;;;3.57;2.30;;;1.90;99.90;;;;;;4963022;28;20214;-88
2023/12/08 06:00:05;;;;;;;3.80;2.07;;;1.90;99.90;;;;;;4972815;28;20489;-87
2023/12/08 06:02:30;;;;;;;7.40;3.40;;;2.00;99.90;;;;;;4982184;28;20209;-88
2023/12/08 06:04:56;;;;;;;4.33;2.93;;;;;;;;;;4982721;28;20208;-89
2023/12/08 06:07:22;;;;;;;32.97;2.63;;;2.10;99.90;;;;;;4983090;28;20262;-87
2023/12/08 06:09:48;;;;;;;4.50;2.40;;;;;;;;;;4982875;28;20426;-87
2023/12/08 06:12:13;;;;;;;6.70;2.73;;;2.10;99.90;;;;;;4982073;28;20299;-87
2023/12/08 06:14:39;;;;;;;4.43;2.00;;;2.00;99.90;;;;;;4979703;28;20445;-87
2023/12/08 06:17:07;;;;;;;2.53;1.67;;;2.10;99.90;;;;;;4980402;28;20171;-88
2023/12/08 06:19:32;;;;;;;4.22;2.40;;;2.00;99.90;;;;;;4963952;28;20217;-88
2023/12/08 06:21:58;;;;;;;3.00;2.00;;;;;;;;;;4980665;28;20195;-88
2023/12/08 06:24:24;;;;;;;2.57;2.33;;;;;;;;;;4995687;28;20210;-88
2023/12/08 06:26:50;;;;;;;4.15;2.40;;;2.20;99.90;;;;;;4995662;28;20417;-88
2023/12/08 06:29:17;;;;;;;1.73;1.63;;;;;;;;;;4979398;28;20245;-86
2023/12/08 06:31:46;;;;;;;5.50;3.08;;;2.40;99.90;;;;;;4995855;28;20677;-87
2023/12/08 06:34:12;;;;;;;6.63;3.83;;;2.50;99.90;;;;;;4972016;28;20176;-88
2023/12/08 06:36:48;;;;;;;6.93;3.30;;;2.50;99.90;;;;;;4996970;28;20584;-88
2023/12/08 06:39:15;;;;;;;4.10;2.45;;;2.50;99.90;;;;;;4979417;28;20175;-88
2023/12/08 06:41:41;;;;;;;7.07;4.05;;;2.40;99.90;;;;;;4970576;28;21211;-89
2023/12/08 06:44:07;;;;;;;5.38;3.08;;;2.20;99.90;;;;;;4991624;28;20186;-88
2023/12/08 06:46:33;;;;;;;6.80;3.80;;;;;;;;;;4984068;28;20182;-87
2023/12/08 06:48:59;;;;;;;5.25;2.70;;;1.80;99.90;;;;;;4984650;28;20461;-88
2023/12/08 06:51:25;;;;;;;5.63;4.33;;;;;;;;;;4979327;28;20179;-89
2023/12/08 06:53:50;;;;;;;9.53;3.57;;;1.70;99.90;;;;;;4995626;28;20183;-88
2023/12/08 06:56:16;;;;;;;6.07;3.90;;;;;;;;;;4973458;28;20419;-88
2023/12/08 06:58:42;;;;;;;4.53;3.83;;;1.70;99.90;;;;;;4997141;28;20237;-88
2023/12/08 07:01:07;;;;;;;8.57;3.87;;;1.60;99.90;;;;;;4993800;28;20203;-89
2023/12/08 07:03:33;;;;;;;6.93;4.60;;;1.60;99.90;;;;;;4967640;28;20302;-84
2023/12/08 07:05:58;;;;;;;9.90;5.40;;;1.50;99.90;;;;;;4985402;28;20175;-87
2023/12/08 07:08:24;;;;;;;6.57;5.03;;;1.50;99.90;;;;;;4981149;28;20171;-86
2023/12/08 07:10:50;;;;;;;9.10;4.40;;;1.60;99.90;;;;;;4993956;28;20207;-88
2023/12/08 07:13:15;;;;;;;8.90;4.40;;;1.50;99.90;;;;;;4998277;28;20192;-84
2023/12/08 07:15:41;;;;;;;9.00;4.77;;;1.60;99.90;;;;;;4984226;28;20205;-85
2023/12/08 07:18:06;;;;;;;4.53;2.80;;;1.70;99.90;;;;;;4994986;28;20159;-83
2023/12/08 07:20:32;;;;;;;8.83;5.07;;;1.90;99.90;;;;;;4982924;28;20231;-86
2023/12/08 07:22:58;;;;;;;8.00;3.17;;;2.00;99.90;;;;;;4993365;28;20206;-84
2023/12/08 07:25:24;;;;;;;4.53;2.80;;;2.00;99.90;;;;;;4992458;28;20183;-85
2023/12/08 07:27:51;;;;;;;8.13;3.53;;;;;;;;;;4985789;28;20209;-86
2023/12/08 07:30:18;;;;;;;8.18;3.83;;;2.10;99.90;;;;;;4994276;28;20201;-85
2023/12/08 07:32:43;;;;;;;12.77;6.35;;;2.10;99.90;;;;;;4993821;28;20713;-84
2023/12/08 07:35:09;;;;;;;8.70;3.83;;;2.20;99.90;;;;;;4991515;28;20330;-87
2023/12/08 07:37:41;;;;;;;7.30;4.20;;;2.30;99.90;;;;;;4979822;28;20183;-87
2023/12/08 07:40:08;;;;;;;4.68;3.03;;;2.20;99.90;;;;;;4970307;28;20203;-86
2023/12/08 07:42:34;;;;;;;6.68;3.83;;;2.10;99.90;;;;;;4980497;28;20203;-88
2023/12/08 07:45:00;;;;;;;6.53;4.20;;;;;;;;;;4978488;28;22115;-87
2023/12/08 07:47:27;;;;;;;10.13;4.53;;;;;;;;;;4983963;28;20263;-87
2023/12/08 07:49:52;;;;;;;10.73;3.35;;;2.00;99.90;;;;;;4965269;28;20447;-87
2023/12/08 07:52:18;;;;;;;7.80;2.50;;;;;;;;;;4981204;28;20179;-88
2023/12/08 07:54:44;;;;;;;6.10;4.30;;;;;;;;;;4991205;28;20191;-88
2023/12/08 07:57:10;;;;;;;13.93;4.67;;;;;;;;;;4993195;28;20430;-87
2023/12/08 07:59:36;;;;;;;9.88;4.35;;;;;;;;;;4985455;28;20455;-87
2023/12/08 08:02:02;;;;;;;7.83;4.43;;;;;;;;;;4976839;28;20225;-88
2023/12/08 08:04:28;;;;;;;4.72;2.78;;;1.70;99.90;;;;;;4973728;28;20422;-87
2023/12/08 08:06:54;;;;;;;10.53;4.47;;;1.70;99.90;;;;;;4989118;28;20202;-87
2023/12/08 08:09:20;;;;;;;12.07;3.50;;;1.80;99.90;;;;;;4967253;28;20679;-87
2023/12/08 08:11:46;;;;;;;3.45;3.05;;;1.90;99.90;;;;;;4978249;28;20563;-87
2023/12/08 08:14:12;;;;;;;5.03;2.90;;;;;;;;;;5005370;28;20168;-87
2023/12/08 08:16:37;;;;;;;7.20;4.32;;;2.00;99.90;;;;;;4985199;28;20958;-87
2023/12/08 08:19:03;;;;;;;13.47;4.70;;;;;;;;;;4989678;28;20194;-86
2023/12/08 08:21:29;;;;;;;9.73;4.67;;;2.10;99.90;;;;;;4996828;28;20238;-87
2023/12/08 08:23:55;;;;;;;14.97;5.70;;;;;;;;;;4993741;28;20435;-87
2023/12/08 08:26:21;;;;;;;7.63;4.00;;;2.10;99.90;;;;;;4975130;28;20183;-87
2023/12/08 08:28:46;;;;;;;9.37;4.27;;;2.20;99.90;;;;;;4992523;28;20171;-88
2023/12/08 08:31:16;;;;;;;8.17;3.20;;;2.50;99.90;;;;;;4975065;28;20365;-87
2023/12/08 08:33:42;;;;;;;28.35;8.30;;;2.50;99.90;;;;;;4988325;28;20218;-87
2023/12/08 08:36:08;;;;;;;17.30;10.10;;;2.70;99.90;;;;;;4985528;28;20182;-88
2023/12/08 08:38:34;;;;;;;23.73;13.10;;;;;;;;;;5002389;28;20220;-86
2023/12/08 08:41:00;;;;;;;11.00;6.57;;;;;;;;;;4989664;28;20691;-87
2023/12/08 08:43:26;;;;;;;10.83;5.43;;;;;;;;;;4991339;28;20485;-88
2023/12/08 08:45:51;;;;;;;12.97;4.17;;;2.70;99.90;;;;;;4985508;28;20534;-88
2023/12/08 08:48:17;;;;;;;7.17;4.43;;;2.60;99.90;;;;;;4985188;28;20441;-88
2023/12/08 08:50:43;;;;;;;9.73;4.07;;;;;;;;;;4967190;28;20211;-87
2023/12/08 08:53:08;;;;;;;10.63;3.55;;;2.70;99.90;;;;;;4989723;28;20172;-87
2023/12/08 08:55:34;;;;;;;8.17;4.17;;;2.80;99.90;;;;;;4991721;28;20285;-88
2023/12/08 08:58:00;;;;;;;7.97;5.00;;;;;;;;;;4988477;28;20211;-87
2023/12/08 09:00:26;;;;;;;9.33;5.30;;;;;;;;;;4971017;28;20310;-88
2023/12/08 09:02:52;;;;;;;10.48;5.05;;;2.70;99.90;;;;;;4982648;28;20564;-88
2023/12/08 09:05:19;;;;;;;6.05;4.57;;;2.70;99.90;;;;;;4980135;28;20245;-87
2023/12/08 09:07:45;;;;;;;13.02;6.43;;;2.60;99.90;;;;;;4988779;28;20180;-87
2023/12/08 09:10:11;;;;;;;14.80;5.40;;;2.50;99.90;;;;;;4973299;28;20194;-87
2023/12/08 09:12:37;;;;;;;12.02;4.15;;;2.50;99.90;;;;;;4984500;28;20182;-88
2023/12/08 09:15:03;;;;;;;12.23;5.53;;;2.60;99.90;;;;;;4976553;28;21105;-87
2023/12/08 09:17:30;;;;;;;6.97;3.13;;;2.60;99.90;;;;;;4977293;28;20174;-86
2023/12/08 09:19:56;;;;;;;13.35;6.47;;;2.70;99.90;;;;;;4975538;28;20317;-88
2023/12/08 09:22:22;;;;;;;6.10;4.17;;;3.00;99.90;;;;;;4991569;28;20202;-88
2023/12/08 09:24:48;;;;;;;7.50;4.40;;;;;;;;;;4985507;28;20244;-88
2023/12/08 09:27:14;;;;;;;12.80;6.43;;;;;;;;;;4993194;28;20423;-87
2023/12/08 09:29:40;;;;;;;12.50;5.00;;;;;;;;;;4991413;28;20226;-88
2023/12/08 09:32:05;;;;;;;11.82;5.90;;;3.50;99.90;;;;;;4978672;28;20447;-88
2023/12/08 09:34:31;;;;;;;9.63;5.10;;;;;;;;;;4985489;28;20214;-88
2023/12/08 09:36:57;;;;;;;11.60;5.17;;;;;;;;;;4980441;28;20418;-88
2023/12/08 09:39:23;;;;;;;8.60;5.60;;;3.40;99.90;;;;;;4989580;28;20442;-87
2023/12/08 09:41:54;;;;;;;8.50;5.03;;;3.40;99.90;;;;;;4980283;28;20233;-88
2023/12/08 09:44:20;;;;;;;7.22;4.13;;;3.30;99.90;;;;;;4976046;28;20271;-87
2023/12/08 09:46:46;;;;;;;9.23;4.27;;;;;;;;;;4992193;28;20167;-88
2023/12/08 09:49:21;;;;;;;10.63;5.72;;;3.20;99.90;;;;;;4988924;28;20183;-88
2023/12/08 09:51:48;;;;;;;11.40;5.70;;;3.20;99.90;;;;;;4993728;28;20172;-88
2023/12/08 09:54:14;;;;;;;11.27;7.18;;;3.40;99.90;;;;;;4979831;28;20186;-88
2023/12/08 09:56:39;;;;;;;12.33;5.40;;;3.40;99.90;;;;;;4990835;28;20170;-88
2023/12/08 09:59:05;;;;;;;8.73;5.37;;;3.70;99.90;;;;;;4976669;28;20434;-88
2023/12/08 10:01:33;;;;;;;12.00;4.35;;;;;;;;;;4989533;28;20198;-88
2023/12/08 10:03:58;;;;;;;7.13;3.55;;;3.70;99.90;;;;;;5005960;28;20171;-88
2023/12/08 10:06:28;;;;;;;10.77;5.50;;;3.80;99.90;;;;;;4968341;28;20179;-88
2023/12/08 10:08:56;;;;;;;9.80;5.15;;;3.80;99.90;;;;;;4987550;28;20689;-88
2023/12/08 10:11:23;;;;;;;7.25;4.05;;;3.80;99.90;;;;;;4987076;28;20168;-87
2023/12/08 10:13:50;;;;;;;14.15;6.20;;;3.60;99.90;;;;;;4978247;28;20213;-88
2023/12/08 10:16:16;;;;;;;15.25;7.68;;;3.40;99.90;;;;;;4971485;28;20733;-88
2023/12/08 10:18:42;;;;;;;9.47;4.10;;;3.30;99.90;;;;;;4978903;28;20218;-88
2023/12/08 10:21:15;;;;;;;15.13;6.27;;;3.40;99.90;;;;;;4985782;28;20214;-89
2023/12/08 10:23:43;;;;;;;15.52;5.53;;;3.40;99.90;;;;;;4983200;28;20609;-88
2023/12/08 10:26:09;;;;;;;15.48;4.93;;;3.50;99.90;;;;;;4970144;28;20678;-88
2023/12/08 10:28:35;;;;;;;9.73;4.53;;;;;;;;;;4992273;28;20166;-88
2023/12/08 10:31:00;;;;;;;9.05;4.57;;;3.80;99.90;;;;;;4985647;28;20464;-87
2023/12/08 10:33:26;;;;;;;11.57;5.07;;;;;;;;;;4968753;28;20176;-88
2023/12/08 10:35:52;;;;;;;11.93;5.45;;;3.90;99.90;;;;;;4988695;28;20363;-87
2023/12/08 10:38:19;;;;;;;6.50;4.10;;;;;;;;;;4995151;28;20218;-88
2023/12/08 10:40:49;;;;;;;17.02;5.85;;;3.70;99.90;;;;;;4996404;28;20527;-87
2023/12/08 10:43:22;;;;;;;12.80;5.68;;;3.80;99.90;;;;;;4983045;28;20216;-87
2023/12/08 10:45:52;;;;;;;7.85;4.95;;;3.80;99.90;;;;;;4976540;28;20262;-88
2023/12/08 10:48:20;;;;;;;9.40;5.13;;;3.80;99.90;;;;;;4994883;28;20189;-88
2023/12/08 10:50:50;;;;;;;26.83;6.13;;;3.80;99.90;;;;;;4982075;28;20273;-88
2023/12/08 10:53:20;;;;;;;9.85;5.35;;;;;;;;;;4993816;28;20180;-88
2023/12/08 10:56:00;;;;;;;14.05;5.65;;;3.80;99.90;;;;;;4993533;28;20708;-87
2023/12/08 10:58:28;;;;;;;6.28;4.40;;;4.00;99.90;;;;;;4993007;28;20650;-88
2023/12/08 11:00:55;;;;;;;7.20;5.78;;;3.90;99.90;;;;;;4977500;28;20235;-88
2023/12/08 11:03:21;;;;;;;11.57;5.78;;;4.20;99.90;;;;;;4996998;28;20167;-88
2023/12/08 11:05:59;;;;;;;8.63;4.78;;;4.40;99.90;;;;;;5001311;28;20222;-89
2023/12/08 11:08:26;;;;;;;16.73;4.95;;;4.50;99.90;;;;;;5006206;28;20171;-87
2023/12/08 11:10:57;;;;;;;13.55;5.68;;;4.50;99.90;;;;;;4975811;28;20222;-88
2023/12/08 11:13:28;;;;;;;6.80;4.20;;;4.60;99.90;;;;;;4977272;28;20269;-86
2023/12/08 11:16:21;;;;;;;8.48;5.80;;;4.70;99.90;;;;;;4991127;28;20233;-87
2023/12/08 11:18:47;;;;;;;7.65;5.05;;;4.80;99.90;;;;;;4991758;28;20202;-87
2023/12/08 11:21:13;;;;;;;11.63;6.10;;;;;;;;;;4985207;28;20203;-87
2023/12/08 11:23:40;;;;;;;14.90;8.70;;;5.20;99.90;;;;;;4987525;28;20223;-87
2023/12/08 11:26:34;;;;;;;14.23;8.63;;;5.20;99.90;;;;;;4989019;28;20434;-87
2023/12/08 11:29:08;;;;;;;9.90;6.90;;;5.60;99.90;;;;;;4988347;28;20175;-87
2023/12/08 11:31:55;;;;;;;12.25;6.57;;;5.70;99.90;;;;;;4969507;28;20186;-88
2023/12/08 11:34:31;;;;;;;12.43;6.72;;;5.70;99.90;;;;;;4987279;28;20184;-88
2023/12/08 11:36:58;;;;;;;11.23;5.70;;;;;;;;;;4971395;28;20185;-87
2023/12/08 11:39:42;;;;;;;14.43;6.65;;;5.40;99.90;;;;;;4987469;28;20210;-88
2023/12/08 11:42:13;;;;;;;16.00;7.82;;;5.50;99.90;;;;;;4972979;28;20215;-88
2023/12/08 11:44:43;;;;;;;14.27;7.43;;;5.60;99.90;;;;;;4984774;28;20202;-88
2023/12/08 11:47:10;;;;;;;12.68;6.05;;;5.60;99.90;;;;;;4990247;28;20194;-88
2023/12/08 11:49:41;;;;;;;10.10;5.70;;;5.60;99.90;;;;;;4985706;28;20204;-88
2023/12/08 11:52:10;;;;;;;15.57;6.95;;;5.80;99.90;;;;;;4995471;28;20187;-87
2023/12/08 11:54:58;;;;;;;11.77;6.88;;;5.70;99.90;;;;;;4970699;28;20188;-88
2023/12/08 11:57:27;;;;;;;11.00;6.20;;;5.70;99.90;;;;;;4993391;28;20191;-87
2023/12/08 11:59:54;;;;;;;9.30;5.50;;;5.50;99.90;;;;;;4988094;28;20219;-87
2023/12/08 12:02:20;;;;;;;15.05;6.30;;;;;;;;;;4969280;28;20270;-88
2023/12/08 12:04:48;;;;;;;19.23;6.13;;;5.50;99.90;;;;;;4985190;28;20242;-88
2023/12/08 12:07:20;;;;;;;7.10;4.45;;;5.30;99.90;;;;;;4981837;28;20488;-88
2023/12/08 12:09:50;;;;;;;14.18;6.78;;;5.30;99.90;;;;;;4987176;28;20207;-88
2023/12/08 12:12:24;;;;;;;11.23;5.65;;;5.20;99.90;;;;;;4965719;28;20545;-87
2023/12/08 12:14:54;;;;;;;14.77;6.40;;;5.30;99.90;;;;;;4987018;28;20191;-87
2023/12/08 12:17:20;;;;;;;12.38;6.00;;;5.30;99.90;;;;;;4986362;28;20192;-88
2023/12/08 12:19:47;;;;;;;11.50;5.70;;;5.40;99.90;;;;;;4984748;28;20211;-88
2023/12/08 12:22:14;;;;;;;15.02;6.70;;;5.40;99.90;;;;;;4966125;28;20778;-88
2023/12/08 12:24:41;;;;;;;13.80;5.47;;;5.40;99.90;;;;;;4985488;28;20266;-88
2023/12/08 12:27:07;;;;;;;10.57;5.30;;;;;;;;;;4965448;28;20179;-88
2023/12/08 12:29:33;;;;;;;9.50;5.40;;;;;;;;;;4981932;28;20295;-88
2023/12/08 12:31:59;;;;;;;13.85;5.43;;;;;;;;;;4983249;28;20437;-88
2023/12/08 12:34:25;;;;;;;13.70;6.00;;;;;;;;;;4968201;28;20183;-87
2023/12/08 12:36:51;;;;;;;14.55;6.88;;;;;;;;;;4988350;28;20491;-87
2023/12/08 12:39:17;;;;;;;18.67;5.60;;;;;;;;;;4982797;28;20208;-88
2023/12/08 12:41:43;;;;;;;16.20;6.40;;;;;;;;;;4979552;28;21198;-87
2023/12/08 12:44:09;;;;;;;10.63;5.10;;;5.30;99.90;;;;;;4983689;28;20449;-87
2023/12/08 12:46:43;;;;;;;11.38;5.53;;;5.30;99.90;;;;;;4972578;28;20582;-88
2023/12/08 12:49:15;;;;;;;10.43;5.72;;;5.50;99.90;;;;;;4964268;28;20172;-88
2023/12/08 12:51:42;;;;;;;8.38;5.70;;;;;;;;;;4980933;28;20563;-88
2023/12/08 12:54:08;;;;;;;13.20;5.00;;;5.50;99.90;;;;;;4966846;28;20183;-87
2023/12/08 12:56:36;;;;;;;7.45;3.65;;;5.40;99.90;;;;;;4973010;28;20538;-88
2023/12/08 12:59:07;;;;;;;21.02;5.78;;;5.50;99.90;;;;;;4965768;28;20215;-87
2023/12/08 13:01:33;;;;;;;14.50;5.68;;;;;;;;;;4969734;28;20223;-88
2023/12/08 13:03:59;;;;;;;12.60;6.88;;;5.60;99.90;;;;;;4985018;28;20179;-87
2023/12/08 13:06:30;;;;;;;14.10;6.95;;;5.70;99.90;;;;;;4971675;28;20589;-88
2023/12/08 13:09:00;;;;;;;14.25;6.03;;;5.70;99.90;;;;;;4981559;28;20180;-88
2023/12/08 13:11:27;;;;;;;18.48;6.22;;;5.40;99.90;;;;;;4964152;28;20179;-88